Time;durP1;ratioP1;P1;durP2;ratioP2;P2;SDS_P1;SDS_P2;PMS_P1;PMS_P2;Temp;Humidity;BMP_temperature;BMP_pressure;BME280_temperature;BME280_humidity;BME280_pressure;Samples;Min_cycle;Max_cycle;Signal;HPM_P1;HPM_P2
2021/06/11 00:00:27;;;;;;;;;7.00;7.00;;;;;;;;3724155;37;20364;-71
2021/06/11 00:02:53;;;;;;;;;6.25;6.25;;;;;;;;3723984;37;20437;-71
2021/06/11 00:05:20;;;;;;;;;7.25;7.00;;;;;;;;3724309;38;20449;-71
2021/06/11 00:07:46;;;;;;;;;8.00;7.75;;;;;;;;3724615;38;17717;-70
2021/06/11 00:10:14;;;;;;;;;7.25;7.00;;;;;;;;3724136;37;20451;-68
2021/06/11 00:12:41;;;;;;;;;6.75;6.00;;;;;;;;3724077;38;17716;-72
2021/06/11 00:15:09;;;;;;;;;7.25;7.25;;;;;;;;3724576;38;20417;-70
2021/06/11 00:17:35;;;;;;;;;6.00;6.00;;;;;;;;3724673;37;20424;-71
2021/06/11 00:20:02;;;;;;;;;7.25;7.25;;;;;;;;3724470;37;20406;-70
2021/06/11 00:22:28;;;;;;;;;7.00;7.00;;;;;;;;3724281;38;17690;-71
2021/06/11 00:25:00;;;;;;;;;8.00;8.00;;;;;;;;3724227;37;20319;-71
2021/06/11 00:27:26;;;;;;;;;8.50;8.50;;;;;;;;3724172;38;20336;-70
2021/06/11 00:29:52;;;;;;;;;9.00;8.75;;;;;;;;3724654;37;20335;-72
2021/06/11 00:32:18;;;;;;;;;6.50;6.50;;;;;;;;3724662;37;17688;-70
2021/06/11 00:34:44;;;;;;;;;7.00;7.00;;;;;;;;3724692;38;17696;-71
2021/06/11 00:37:11;;;;;;;;;7.25;7.25;;;;;;;;3724062;37;20412;-72
2021/06/11 00:39:37;;;;;;;;;7.50;7.50;;;;;;;;3724232;37;20330;-70
2021/06/11 00:42:10;;;;;;;;;6.25;6.25;;;;;;;;3724632;37;20405;-71
2021/06/11 00:44:36;;;;;;;;;9.00;9.00;;;;;;;;3724623;37;20414;-70
2021/06/11 00:47:02;;;;;;;;;10.00;10.00;;;;;;;;3724854;38;20376;-72
2021/06/11 00:49:28;;;;;;;;;10.75;10.00;;;;;;;;3724686;37;17649;-70
2021/06/11 00:51:54;;;;;;;;;8.75;8.75;;;;;;;;3724797;37;20322;-70
2021/06/11 00:54:21;;;;;;;;;8.50;8.50;;;;;;;;3724698;38;17662;-71
2021/06/11 00:56:48;;;;;;;;;9.00;9.00;;;;;;;;3724217;37;17642;-71
2021/06/11 00:59:20;;;;;;;;;8.00;8.00;;;;;;;;3724334;38;20192;-72
2021/06/11 01:01:47;;;;;;;;;7.25;7.00;;;;;;;;3724292;38;20180;-72
2021/06/11 01:04:20;;;;;;;;;6.00;6.00;;;;;;;;3724680;38;20223;-71
2021/06/11 01:06:48;;;;;;;;;6.75;5.50;;;;;;;;3724804;38;20244;-72
2021/06/11 01:09:14;;;;;;;;;7.00;7.00;;;;;;;;3724501;37;20234;-72
2021/06/11 01:11:43;;;;;;;;;6.50;6.00;;;;;;;;3724962;38;20225;-72
2021/06/11 01:14:10;;;;;;;;;6.50;6.25;;;;;;;;3724447;38;20183;-71
2021/06/11 01:16:36;;;;;;;;;7.25;7.25;;;;;;;;3724625;38;20208;-72
2021/06/11 01:19:04;;;;;;;;;11.00;9.00;;;;;;;;3724896;37;20360;-71
2021/06/11 01:21:32;;;;;;;;;8.50;8.50;;;;;;;;3724762;37;20173;-69
2021/06/11 01:24:21;;;;;;;;;9.00;9.00;;;;;;;;3728404;38;20176;-70
2021/06/11 01:26:51;;;;;;;;;8.75;7.75;;;;;;;;3724668;38;20142;-70
2021/06/11 01:29:24;;;;;;;;;7.00;7.00;;;;;;;;3724960;37;20135;-70
2021/06/11 01:31:53;;;;;;;;;8.50;8.50;;;;;;;;3725016;37;21108;-69
2021/06/11 01:34:24;;;;;;;;;9.00;9.00;;;;;;;;3724845;37;20153;-69
2021/06/11 01:36:54;;;;;;;;;9.00;9.00;;;;;;;;3724689;37;21112;-70
2021/06/11 01:39:22;;;;;;;;;9.00;8.25;;;;;;;;3724197;37;21098;-70
2021/06/11 01:41:51;;;;;;;;;7.00;7.00;;;;;;;;3724308;37;21135;-71
2021/06/11 01:44:19;;;;;;;;;7.75;7.75;;;;;;;;3724258;37;21104;-72
2021/06/11 01:46:46;;;;;;;;;9.00;9.00;;;;;;;;3724079;37;21130;-71
2021/06/11 01:49:14;;;;;;;;;8.50;8.50;;;;;;;;3724643;38;21122;-71
2021/06/11 01:51:42;;;;;;;;;10.00;10.00;;;;;;;;3724336;38;21082;-71
2021/06/11 01:54:11;;;;;;;;;10.00;10.00;;;;;;;;3724658;37;21128;-70
2021/06/11 01:56:38;;;;;;;;;10.00;10.00;;;;;;;;3724084;37;21134;-70
2021/06/11 01:59:06;;;;;;;;;10.75;10.00;;;;;;;;3724177;37;21131;-72
2021/06/11 02:01:35;;;;;;;;;11.00;11.00;;;;;;;;3724139;38;21145;-73
2021/06/11 02:04:02;;;;;;;;;10.75;10.00;;;;;;;;3724487;38;21141;-72
2021/06/11 02:06:30;;;;;;;;;11.25;11.25;;;;;;;;3724555;38;21132;-71
2021/06/11 02:08:56;;;;;;;;;7.25;7.25;;;;;;;;3724311;38;21275;-71
2021/06/11 02:11:23;;;;;;;;;11.50;11.50;;;;;;;;3724614;37;21118;-72
2021/06/11 02:13:52;;;;;;;;;10.75;10.50;;;;;;;;3726029;38;21107;-72
2021/06/11 02:16:20;;;;;;;;;11.75;11.00;;;;;;;;3725633;37;21116;-72
2021/06/11 02:18:47;;;;;;;;;10.00;10.00;;;;;;;;3724134;38;21097;-72
2021/06/11 02:21:14;;;;;;;;;11.00;11.00;;;;;;;;3724218;37;21104;-71
2021/06/11 02:23:42;;;;;;;;;9.00;8.00;;;;;;;;3724288;37;21109;-71
2021/06/11 02:26:12;;;;;;;;;11.25;11.25;;;;;;;;3724250;37;21095;-73
2021/06/11 02:28:38;;;;;;;;;11.25;11.25;;;;;;;;3724205;37;21124;-71
2021/06/11 02:31:04;;;;;;;;;10.75;10.75;;;;;;;;3724875;38;21091;-73
2021/06/11 02:33:32;;;;;;;;;11.00;11.00;;;;;;;;3724811;37;21040;-73
2021/06/11 02:35:58;;;;;;;;;10.00;9.75;;;;;;;;3724634;38;21091;-72
2021/06/11 02:38:28;;;;;;;;;10.25;10.25;;;;;;;;3724516;37;21102;-72
2021/06/11 02:40:56;;;;;;;;;14.75;13.75;;;;;;;;3724872;38;21125;-72
2021/06/11 02:43:24;;;;;;;;;12.25;12.25;;;;;;;;3724866;37;21120;-72
2021/06/11 02:46:03;;;;;;;;;11.00;11.00;;;;;;;;3724335;37;21079;-72
2021/06/11 02:48:35;;;;;;;;;25.75;25.75;;;;;;;;3724841;37;21064;-72
2021/06/11 02:51:13;;;;;;;;;12.75;12.75;;;;;;;;3724785;38;21083;-72
2021/06/11 02:53:41;;;;;;;;;12.00;12.00;;;;;;;;3724610;38;21081;-70
2021/06/11 02:56:17;;;;;;;;;10.50;10.50;;;;;;;;3724791;37;21085;-70
2021/06/11 02:58:52;;;;;;;;;13.75;13.75;;;;;;;;3724659;38;21182;-70
2021/06/11 03:01:22;;;;;;;;;21.25;19.50;;;;;;;;3724488;38;21185;-71
2021/06/11 03:03:50;;;;;;;;;10.50;10.00;;;;;;;;3724344;37;21181;-70
2021/06/11 03:06:18;;;;;;;;;13.00;12.25;;;;;;;;3724390;38;21168;-74
2021/06/11 03:08:45;;;;;;;;;14.50;13.50;;;;;;;;3724672;37;21259;-75
2021/06/11 03:11:19;;;;;;;;;12.00;12.00;;;;;;;;3725013;38;21166;-71
2021/06/11 03:13:47;;;;;;;;;12.00;12.00;;;;;;;;3724578;37;21165;-71
2021/06/11 03:16:13;;;;;;;;;12.25;12.25;;;;;;;;3724507;38;21167;-71
2021/06/11 03:18:45;;;;;;;;;10.75;10.75;;;;;;;;3724903;38;21163;-70
2021/06/11 03:21:21;;;;;;;;;11.50;11.25;;;;;;;;3724740;38;21158;-72
2021/06/11 03:24:11;;;;;;;;;12.50;12.25;;;;;;;;3724847;37;21128;-72
2021/06/11 03:26:58;;;;;;;;;16.00;15.00;;;;;;;;3724760;38;21163;-72
2021/06/11 03:29:36;;;;;;;;;11.50;11.50;;;;;;;;3724371;38;21178;-74
2021/06/11 03:32:04;;;;;;;;;12.50;12.50;;;;;;;;3724523;37;21138;-72
2021/06/11 03:34:35;;;;;;;;;13.25;12.00;;;;;;;;3724304;37;21153;-72
2021/06/11 03:37:03;;;;;;;;;14.25;13.50;;;;;;;;3724182;38;21244;-74
2021/06/11 03:39:37;;;;;;;;;25.75;25.50;;;;;;;;3724758;38;21132;-72
2021/06/11 03:42:05;;;;;;;;;11.25;11.25;;;;;;;;3724688;37;21197;-70
2021/06/11 03:44:41;;;;;;;;;11.00;11.00;;;;;;;;3724444;37;21197;-70
2021/06/11 03:47:24;;;;;;;;;10.25;10.25;;;;;;;;3734921;37;21171;-70
2021/06/11 03:49:59;;;;;;;;;12.50;12.50;;;;;;;;3741682;38;21126;-72
2021/06/11 03:52:32;;;;;;;;;12.00;12.00;;;;;;;;3739233;37;21169;-72
2021/06/11 03:55:01;;;;;;;;;14.00;14.00;;;;;;;;3733566;37;21132;-71
2021/06/11 03:57:31;;;;;;;;;15.25;14.50;;;;;;;;3725354;37;21187;-72
2021/06/11 03:59:59;;;;;;;;;10.00;10.00;;;;;;;;3725128;37;21211;-73
2021/06/11 04:02:25;;;;;;;;;12.50;12.50;;;;;;;;3725299;37;21154;-72
2021/06/11 04:04:51;;;;;;;;;25.50;23.25;;;;;;;;3729534;38;21131;-71
2021/06/11 04:07:36;;;;;;;;;12.00;12.00;;;;;;;;3725735;37;21187;-69
2021/06/11 04:10:04;;;;;;;;;12.25;12.00;;;;;;;;3725972;37;21176;-71
2021/06/11 04:12:37;;;;;;;;;12.00;12.00;;;;;;;;3725067;38;21079;-71
2021/06/11 04:15:04;;;;;;;;;12.25;12.25;;;;;;;;3725151;37;21168;-71
2021/06/11 04:17:34;;;;;;;;;12.75;12.00;;;;;;;;3725112;38;21181;-71
2021/06/11 04:20:02;;;;;;;;;12.50;12.50;;;;;;;;3725035;38;21174;-70
2021/06/11 04:22:33;;;;;;;;;52.25;43.50;;;;;;;;3725089;37;21178;-73
2021/06/11 04:25:00;;;;;;;;;15.25;13.50;;;;;;;;3724682;38;21116;-75
2021/06/11 04:27:29;;;;;;;;;13.75;13.75;;;;;;;;3724935;37;21091;-73
2021/06/11 04:29:56;;;;;;;;;12.50;12.50;;;;;;;;3724450;38;21123;-72
2021/06/11 04:32:22;;;;;;;;;10.25;10.25;;;;;;;;3724810;37;21156;-70
2021/06/11 04:34:58;;;;;;;;;9.75;9.75;;;;;;;;3724958;37;21139;-71
2021/06/11 04:37:24;;;;;;;;;12.50;12.50;;;;;;;;3724467;37;21057;-73
2021/06/11 04:39:52;;;;;;;;;13.00;13.00;;;;;;;;3724854;38;21058;-71
2021/06/11 04:42:18;;;;;;;;;10.00;10.00;;;;;;;;3725278;38;21127;-74
2021/06/11 04:44:45;;;;;;;;;11.00;10.25;;;;;;;;3725195;38;21066;-72
2021/06/11 04:47:13;;;;;;;;;9.25;8.50;;;;;;;;3725328;37;21026;-85
2021/06/11 04:49:39;;;;;;;;;9.00;9.00;;;;;;;;3725208;37;21098;-71
2021/06/11 04:52:05;;;;;;;;;8.25;8.25;;;;;;;;3725261;38;20967;-68
2021/06/11 04:54:33;;;;;;;;;8.50;8.50;;;;;;;;3725663;37;18322;-70
2021/06/11 04:57:03;;;;;;;;;9.50;9.50;;;;;;;;3725189;37;20992;-71
2021/06/11 04:59:30;;;;;;;;;10.25;10.25;;;;;;;;3724494;37;21006;-72
2021/06/11 05:01:57;;;;;;;;;8.00;7.50;;;;;;;;3725051;37;21080;-69
2021/06/11 05:04:23;;;;;;;;;6.00;6.00;;;;;;;;3725511;38;20951;-72
2021/06/11 05:06:50;;;;;;;;;8.00;8.00;;;;;;;;3729784;37;20987;-71
2021/06/11 05:09:22;;;;;;;;;8.25;8.25;;;;;;;;3731411;37;20988;-71
2021/06/11 05:11:50;;;;;;;;;7.00;7.00;;;;;;;;3731958;37;21123;-67
2021/06/11 05:14:16;;;;;;;;;6.25;6.25;;;;;;;;3731742;38;20943;-70
2021/06/11 05:16:42;;;;;;;;;10.75;9.75;;;;;;;;3726291;37;21025;-69
2021/06/11 05:19:09;;;;;;;;;8.25;7.75;;;;;;;;3725545;37;21071;-66
2021/06/11 05:21:35;;;;;;;;;10.00;10.00;;;;;;;;3725208;38;18294;-69
2021/06/11 05:24:01;;;;;;;;;8.50;7.25;;;;;;;;3725691;38;21038;-70
2021/06/11 05:26:29;;;;;;;;;9.00;9.00;;;;;;;;3726042;38;18288;-70
2021/06/11 05:28:55;;;;;;;;;6.75;6.75;;;;;;;;3725518;37;21016;-69
2021/06/11 05:31:22;;;;;;;;;9.25;9.25;;;;;;;;3725867;38;20998;-69
2021/06/11 05:33:51;;;;;;;;;9.50;9.50;;;;;;;;3725819;37;21055;-69
2021/06/11 05:36:17;;;;;;;;;8.75;8.25;;;;;;;;3725075;37;20965;-69
2021/06/11 05:38:45;;;;;;;;;8.25;8.25;;;;;;;;3725663;38;21010;-69
2021/06/11 05:41:13;;;;;;;;;8.50;8.25;;;;;;;;3725278;38;20926;-67
2021/06/11 05:43:43;;;;;;;;;8.25;8.00;;;;;;;;3727137;38;20979;-67
2021/06/11 05:46:16;;;;;;;;;8.25;8.25;;;;;;;;3725393;38;20981;-67
2021/06/11 05:48:43;;;;;;;;;8.75;8.00;;;;;;;;3725738;37;20929;-65
2021/06/11 05:51:09;;;;;;;;;8.25;8.25;;;;;;;;3725414;38;20975;-65
2021/06/11 05:53:37;;;;;;;;;10.75;10.75;;;;;;;;3725356;37;20973;-67
2021/06/11 05:56:04;;;;;;;;;8.50;8.50;;;;;;;;3725375;37;21026;-64
2021/06/11 05:58:31;;;;;;;;;10.50;10.00;;;;;;;;3724974;37;20751;-67
2021/06/11 06:00:57;;;;;;;;;10.50;8.75;;;;;;;;3727239;38;21051;-69
2021/06/11 06:03:24;;;;;;;;;8.00;8.00;;;;;;;;3725607;37;20888;-67
2021/06/11 06:05:51;;;;;;;;;8.75;8.75;;;;;;;;3726326;37;20817;-68
2021/06/11 06:08:17;;;;;;;;;10.00;10.00;;;;;;;;3725778;38;20759;-68
2021/06/11 06:10:49;;;;;;;;;11.75;9.75;;;;;;;;3725397;38;20854;-66
2021/06/11 06:13:16;;;;;;;;;7.75;7.75;;;;;;;;3724941;37;20807;-66
2021/06/11 06:15:44;;;;;;;;;9.75;9.75;;;;;;;;3724507;37;20826;-68
2021/06/11 06:18:12;;;;;;;;;11.00;10.50;;;;;;;;3724799;37;20787;-66
2021/06/11 06:20:38;;;;;;;;;10.00;10.00;;;;;;;;3725466;37;20796;-66
2021/06/11 06:23:04;;;;;;;;;11.00;10.75;;;;;;;;3725354;38;20770;-65
2021/06/11 06:25:32;;;;;;;;;10.50;10.25;;;;;;;;3725157;38;20823;-67
2021/06/11 06:27:59;;;;;;;;;9.00;9.00;;;;;;;;3726319;38;20841;-67
2021/06/11 06:30:26;;;;;;;;;11.75;11.00;;;;;;;;3725183;37;20773;-67
2021/06/11 06:32:52;;;;;;;;;10.00;9.75;;;;;;;;3725312;38;20831;-67
2021/06/11 06:35:19;;;;;;;;;10.75;10.75;;;;;;;;3725620;38;20774;-65
2021/06/11 06:37:45;;;;;;;;;9.00;8.25;;;;;;;;3725724;37;20740;-67
2021/06/11 06:40:12;;;;;;;;;11.25;11.25;;;;;;;;3725856;38;20729;-66
2021/06/11 06:42:38;;;;;;;;;11.00;11.00;;;;;;;;3725802;37;20812;-67
2021/06/11 06:45:12;;;;;;;;;12.00;12.00;;;;;;;;3726940;37;20754;-67
2021/06/11 06:47:39;;;;;;;;;9.00;8.00;;;;;;;;3726263;38;20742;-66
2021/06/11 06:50:12;;;;;;;;;11.25;11.25;;;;;;;;3725342;37;20702;-70
2021/06/11 06:52:38;;;;;;;;;10.25;10.25;;;;;;;;3726043;37;20729;-68
2021/06/11 06:55:06;;;;;;;;;12.50;10.75;;;;;;;;3726643;38;20731;-67
2021/06/11 06:57:32;;;;;;;;;12.00;11.00;;;;;;;;3727294;38;20852;-67
2021/06/11 06:59:58;;;;;;;;;10.25;10.25;;;;;;;;3725641;37;20858;-66
2021/06/11 07:02:26;;;;;;;;;9.50;9.50;;;;;;;;3725452;38;20952;-65
2021/06/11 07:04:52;;;;;;;;;10.00;10.00;;;;;;;;3725411;37;18180;-66
2021/06/11 07:07:18;;;;;;;;;12.25;12.25;;;;;;;;3725328;38;20798;-67
2021/06/11 07:09:44;;;;;;;;;12.00;12.00;;;;;;;;3725300;37;18151;-66
2021/06/11 07:12:10;;;;;;;;;11.25;10.50;;;;;;;;3724913;37;18139;-66
2021/06/11 07:14:36;;;;;;;;;8.75;8.75;;;;;;;;3725422;38;20867;-66
2021/06/11 07:17:05;;;;;;;;;14.50;12.00;;;;;;;;3725331;37;20833;-67
2021/06/11 07:19:32;;;;;;;;;8.75;8.75;;;;;;;;3725332;37;18156;-68
2021/06/11 07:21:57;;;;;;;;;12.75;10.00;;;;;;;;3725552;38;20834;-67
2021/06/11 07:24:23;;;;;;;;;11.00;11.00;;;;;;;;3725387;37;20787;-66
2021/06/11 07:26:53;;;;;;;;;11.25;11.25;;;;;;;;3724775;37;18132;-67
2021/06/11 07:29:22;;;;;;;;;13.00;13.00;;;;;;;;3725689;38;18131;-67
2021/06/11 07:31:49;;;;;;;;;10.50;10.50;;;;;;;;3725590;37;20800;-67
2021/06/11 07:34:15;;;;;;;;;11.75;11.75;;;;;;;;3725400;37;20819;-67
2021/06/11 07:36:42;;;;;;;;;9.00;9.00;;;;;;;;3725457;37;20832;-67
2021/06/11 07:39:08;;;;;;;;;10.75;10.75;;;;;;;;3725409;37;18127;-66
2021/06/11 07:41:34;;;;;;;;;11.00;11.00;;;;;;;;3725441;38;20818;-67
2021/06/11 07:44:01;;;;;;;;;13.50;13.25;;;;;;;;3725426;37;18092;-66
2021/06/11 07:46:28;;;;;;;;;11.00;11.00;;;;;;;;3725662;38;20881;-65
2021/06/11 07:48:54;;;;;;;;;8.00;8.00;;;;;;;;3725249;37;20782;-66
2021/06/11 07:51:20;;;;;;;;;14.00;13.50;;;;;;;;3725344;38;18102;-67
2021/06/11 07:53:46;;;;;;;;;10.25;10.25;;;;;;;;3725406;37;18107;-67
2021/06/11 07:56:12;;;;;;;;;10.75;10.75;;;;;;;;3725331;37;20852;-67
2021/06/11 07:58:39;;;;;;;;;10.75;10.00;;;;;;;;3725930;38;18082;-66
2021/06/11 08:01:06;;;;;;;;;9.00;9.00;;;;;;;;3725498;38;20843;-67
2021/06/11 08:03:32;;;;;;;;;10.25;10.25;;;;;;;;3725227;37;20716;-66
2021/06/11 08:06:04;;;;;;;;;9.25;9.25;;;;;;;;3725717;37;20712;-66
2021/06/11 08:08:30;;;;;;;;;10.00;10.00;;;;;;;;3725499;37;18074;-66
2021/06/11 08:10:56;;;;;;;;;9.75;9.75;;;;;;;;3726439;37;20793;-66
2021/06/11 08:13:23;;;;;;;;;10.25;10.25;;;;;;;;3733469;37;20812;-67
2021/06/11 08:15:50;;;;;;;;;9.00;9.00;;;;;;;;3737441;37;20775;-68
2021/06/11 08:18:20;;;;;;;;;9.50;9.50;;;;;;;;3733611;38;20721;-67
2021/06/11 08:20:47;;;;;;;;;7.00;7.00;;;;;;;;3734069;38;20685;-63
2021/06/11 08:23:13;;;;;;;;;34.50;32.25;;;;;;;;3726264;37;20705;-63
2021/06/11 08:25:40;;;;;;;;;7.50;7.50;;;;;;;;3727235;38;20809;-62
2021/06/11 08:28:06;;;;;;;;;10.00;10.00;;;;;;;;3726077;37;20756;-63
2021/06/11 08:30:32;;;;;;;;;9.00;9.00;;;;;;;;3725688;38;20797;-63
2021/06/11 08:32:59;;;;;;;;;9.00;9.00;;;;;;;;3725117;37;20799;-64
2021/06/11 08:35:27;;;;;;;;;7.25;7.25;;;;;;;;3725049;37;20694;-62
2021/06/11 08:37:54;;;;;;;;;6.25;6.25;;;;;;;;3725444;37;20681;-64
2021/06/11 08:40:20;;;;;;;;;7.25;7.25;;;;;;;;3725071;37;20733;-63
2021/06/11 08:42:47;;;;;;;;;8.00;8.00;;;;;;;;3725327;37;20687;-63
2021/06/11 08:45:14;;;;;;;;;9.00;9.00;;;;;;;;3725399;37;20749;-65
2021/06/11 08:47:49;;;;;;;;;9.00;9.00;;;;;;;;3725253;37;20683;-64
2021/06/11 08:50:16;;;;;;;;;8.50;8.50;;;;;;;;3724788;38;20793;-64
2021/06/11 08:52:42;;;;;;;;;9.00;8.50;;;;;;;;3725573;38;20654;-62
2021/06/11 08:55:09;;;;;;;;;10.00;10.00;;;;;;;;3725444;37;20653;-64
2021/06/11 08:57:35;;;;;;;;;3.25;3.25;;;;;;;;3725089;38;20604;-63
2021/06/11 09:00:01;;;;;;;;;8.00;8.00;;;;;;;;3725094;38;20529;-62
2021/06/11 09:02:28;;;;;;;;;9.00;9.00;;;;;;;;3726588;37;17999;-64
2021/06/11 09:04:57;;;;;;;;;9.50;9.00;;;;;;;;3725539;37;20511;-63
2021/06/11 09:07:33;;;;;;;;;8.75;8.50;;;;;;;;3728320;37;20515;-63
2021/06/11 09:10:04;;;;;;;;;5.25;5.25;;;;;;;;3728106;37;20605;-62
2021/06/11 09:12:41;;;;;;;;;6.25;6.25;;;;;;;;3726156;37;20515;-63
2021/06/11 09:15:11;;;;;;;;;7.75;7.75;;;;;;;;3726269;37;20494;-63
2021/06/11 09:17:45;;;;;;;;;8.00;8.00;;;;;;;;3726982;37;20517;-62
2021/06/11 09:20:23;;;;;;;;;8.00;7.50;;;;;;;;3732257;38;20515;-62
2021/06/11 09:22:52;;;;;;;;;7.25;7.25;;;;;;;;3736009;37;20494;-62
2021/06/11 09:25:41;;;;;;;;;9.00;8.75;;;;;;;;3732076;37;20543;-63
2021/06/11 09:28:28;;;;;;;;;7.50;7.50;;;;;;;;3730781;38;20571;-63
2021/06/11 09:30:56;;;;;;;;;5.75;5.75;;;;;;;;3733943;37;20557;-63
2021/06/11 09:33:25;;;;;;;;;7.50;7.50;;;;;;;;3730169;38;20555;-61
2021/06/11 09:35:56;;;;;;;;;11.25;10.50;;;;;;;;3732341;37;20496;-67
2021/06/11 09:38:29;;;;;;;;;6.25;6.25;;;;;;;;3727236;38;20596;-63
2021/06/11 09:41:15;;;;;;;;;5.75;5.50;;;;;;;;3738113;37;20549;-65
2021/06/11 09:43:55;;;;;;;;;7.50;7.50;;;;;;;;3726317;38;20530;-63
2021/06/11 09:46:21;;;;;;;;;8.00;8.00;;;;;;;;3725372;38;20502;-62
2021/06/11 09:48:49;;;;;;;;;7.50;7.50;;;;;;;;3725913;38;20546;-64
2021/06/11 09:51:19;;;;;;;;;7.75;7.75;;;;;;;;3725163;37;20538;-65
2021/06/11 09:53:45;;;;;;;;;7.25;7.25;;;;;;;;3725900;37;20532;-64
2021/06/11 09:56:25;;;;;;;;;7.00;7.00;;;;;;;;3727635;37;20460;-64
2021/06/11 09:58:53;;;;;;;;;7.00;6.50;;;;;;;;3725435;37;20532;-63
2021/06/11 10:01:19;;;;;;;;;5.75;5.75;;;;;;;;3725378;37;20557;-64
2021/06/11 10:03:48;;;;;;;;;7.25;7.25;;;;;;;;3725218;37;20565;-64
2021/06/11 10:06:15;;;;;;;;;8.00;8.00;;;;;;;;3725142;37;20545;-65
2021/06/11 10:08:45;;;;;;;;;6.75;6.75;;;;;;;;3725325;37;20536;-64
2021/06/11 10:11:13;;;;;;;;;6.00;6.00;;;;;;;;3724775;37;20558;-63
2021/06/11 10:13:42;;;;;;;;;8.00;7.50;;;;;;;;3725497;37;20533;-64
2021/06/11 10:16:10;;;;;;;;;8.50;7.75;;;;;;;;3725362;38;20566;-64
2021/06/11 10:18:37;;;;;;;;;7.00;7.00;;;;;;;;3724891;37;20555;-64
2021/06/11 10:21:06;;;;;;;;;8.50;7.75;;;;;;;;3724973;37;20555;-63
2021/06/11 10:23:35;;;;;;;;;5.75;5.75;;;;;;;;3724513;38;20530;-64
2021/06/11 10:26:03;;;;;;;;;8.00;8.00;;;;;;;;3725011;38;20606;-64
2021/06/11 10:28:31;;;;;;;;;8.25;8.00;;;;;;;;3725239;37;20522;-64
2021/06/11 10:31:01;;;;;;;;;7.00;7.00;;;;;;;;3725342;38;20552;-64
2021/06/11 10:33:52;;;;;;;;;5.25;5.25;;;;;;;;3725021;38;20522;-63
2021/06/11 10:36:47;;;;;;;;;7.75;7.75;;;;;;;;3724763;38;20530;-63
2021/06/11 10:39:24;;;;;;;;;7.00;7.00;;;;;;;;3724927;38;20540;-64
2021/06/11 10:41:57;;;;;;;;;8.25;8.25;;;;;;;;3725049;38;20527;-63
2021/06/11 10:44:41;;;;;;;;;6.00;6.00;;;;;;;;3724595;37;20504;-63
2021/06/11 10:47:38;;;;;;;;;6.25;6.25;;;;;;;;3725144;37;20543;-64
2021/06/11 10:50:10;;;;;;;;;6.75;6.75;;;;;;;;3725072;37;20503;-63
2021/06/11 10:52:53;;;;;;;;;200.00;191.80;;;;;;;;3725003;38;20479;-63
2021/06/11 10:55:44;;;;;;;;;162.20;154.80;;;;;;;;3725019;37;17841;-62
2021/06/11 10:58:21;;;;;;;;;7.00;7.00;;;;;;;;3725275;38;17840;-64
2021/06/11 11:00:48;;;;;;;;;7.00;7.00;;;;;;;;3724984;37;20476;-65
2021/06/11 11:03:29;;;;;;;;;7.00;7.00;;;;;;;;3725277;38;20354;-65
2021/06/11 11:05:55;;;;;;;;;9.00;9.00;;;;;;;;3725279;37;20339;-64
2021/06/11 11:08:22;;;;;;;;;9.25;9.00;;;;;;;;3725077;38;20348;-63
2021/06/11 11:10:50;;;;;;;;;7.75;7.75;;;;;;;;3724598;38;20354;-64
2021/06/11 11:13:26;;;;;;;;;7.50;7.50;;;;;;;;3725483;37;20362;-65
2021/06/11 11:15:54;;;;;;;;;7.75;7.75;;;;;;;;3725751;38;20348;-64
2021/06/11 11:18:39;;;;;;;;;5.50;5.00;;;;;;;;3725778;37;20347;-64
2021/06/11 11:21:23;;;;;;;;;3.75;3.75;;;;;;;;3725202;38;20339;-64
2021/06/11 11:23:53;;;;;;;;;7.25;7.00;;;;;;;;3726559;37;20486;-64
2021/06/11 11:26:21;;;;;;;;;6.25;6.25;;;;;;;;3725438;37;20434;-64
2021/06/11 11:28:47;;;;;;;;;6.75;6.75;;;;;;;;3724965;37;20316;-64
2021/06/11 11:31:16;;;;;;;;;5.50;5.50;;;;;;;;3725616;38;20533;-63
2021/06/11 11:33:42;;;;;;;;;5.00;5.00;;;;;;;;3727068;37;20317;-67
2021/06/11 11:36:08;;;;;;;;;6.00;6.00;;;;;;;;3726420;37;20318;-64
2021/06/11 11:38:34;;;;;;;;;6.25;6.25;;;;;;;;3725528;37;20331;-65
2021/06/11 11:41:01;;;;;;;;;8.00;6.00;;;;;;;;3725517;37;20344;-65
2021/06/11 11:43:27;;;;;;;;;6.00;6.00;;;;;;;;3725386;38;20391;-62
2021/06/11 11:45:53;;;;;;;;;8.50;8.50;;;;;;;;3725315;37;20302;-62
2021/06/11 11:48:23;;;;;;;;;7.00;7.00;;;;;;;;3725377;38;20298;-63
2021/06/11 11:50:49;;;;;;;;;6.50;6.50;;;;;;;;3725712;37;20299;-62
2021/06/11 11:53:15;;;;;;;;;6.00;6.00;;;;;;;;3725852;38;20313;-61
2021/06/11 11:55:41;;;;;;;;;5.75;5.75;;;;;;;;3725680;38;17753;-62
2021/06/11 11:58:09;;;;;;;;;5.75;5.75;;;;;;;;3725985;38;20283;-62
2021/06/11 12:00:36;;;;;;;;;7.00;7.00;;;;;;;;3725602;37;20300;-64
2021/06/11 12:03:02;;;;;;;;;3.25;3.25;;;;;;;;3725437;38;20417;-63
2021/06/11 12:05:28;;;;;;;;;7.00;7.00;;;;;;;;3725518;38;20433;-62
2021/06/11 12:07:56;;;;;;;;;7.50;7.50;;;;;;;;3726220;37;20383;-63
2021/06/11 12:10:25;;;;;;;;;6.00;6.00;;;;;;;;3725680;38;20402;-63
2021/06/11 12:12:53;;;;;;;;;8.50;8.50;;;;;;;;3724820;37;20392;-64
2021/06/11 12:15:20;;;;;;;;;6.00;6.00;;;;;;;;3729268;38;20404;-65
2021/06/11 12:17:50;;;;;;;;;4.00;4.00;;;;;;;;3728131;38;20357;-66
2021/06/11 12:20:17;;;;;;;;;6.00;6.00;;;;;;;;3728205;38;20468;-65
2021/06/11 12:22:43;;;;;;;;;4.00;4.00;;;;;;;;3725634;38;20355;-64
2021/06/11 12:25:09;;;;;;;;;7.75;7.50;;;;;;;;3725147;38;20373;-65
2021/06/11 12:27:35;;;;;;;;;6.25;6.25;;;;;;;;3725782;38;20372;-63
2021/06/11 12:30:02;;;;;;;;;4.50;4.00;;;;;;;;3727301;38;20371;-64
2021/06/11 12:32:29;;;;;;;;;5.50;5.50;;;;;;;;3735842;37;20371;-64
2021/06/11 12:34:55;;;;;;;;;6.25;6.25;;;;;;;;3738129;38;20355;-63
2021/06/11 12:37:24;;;;;;;;;6.75;6.25;;;;;;;;3738321;38;20360;-64
2021/06/11 12:39:52;;;;;;;;;8.00;8.00;;;;;;;;3727638;37;17730;-64
2021/06/11 12:42:19;;;;;;;;;5.00;5.00;;;;;;;;3725389;37;20344;-64
2021/06/11 12:44:46;;;;;;;;;8.75;8.75;;;;;;;;3725626;37;20379;-64
2021/06/11 12:47:13;;;;;;;;;5.50;5.50;;;;;;;;3725752;38;20348;-64
2021/06/11 12:49:39;;;;;;;;;7.25;6.75;;;;;;;;3725290;38;20327;-66
2021/06/11 12:52:11;;;;;;;;;6.00;6.00;;;;;;;;3725365;38;20348;-64
2021/06/11 12:54:39;;;;;;;;;6.75;6.75;;;;;;;;3725441;38;20335;-64
2021/06/11 12:57:05;;;;;;;;;6.00;6.00;;;;;;;;3725414;38;20445;-65
2021/06/11 12:59:34;;;;;;;;;6.25;6.25;;;;;;;;3725886;37;20312;-64
2021/06/11 13:02:00;;;;;;;;;7.00;7.00;;;;;;;;3725427;38;20346;-63
2021/06/11 13:04:26;;;;;;;;;5.50;5.00;;;;;;;;3725102;37;20324;-61
2021/06/11 13:06:58;;;;;;;;;6.00;6.00;;;;;;;;3725252;37;20329;-64
2021/06/11 13:09:25;;;;;;;;;5.50;5.50;;;;;;;;3725915;37;20341;-64
2021/06/11 13:11:51;;;;;;;;;6.50;5.25;;;;;;;;3732026;37;20316;-66
2021/06/11 13:14:17;;;;;;;;;4.25;4.25;;;;;;;;3727856;37;20319;-65
2021/06/11 13:16:43;;;;;;;;;7.25;4.00;;;;;;;;3725277;38;20369;-64
2021/06/11 13:19:09;;;;;;;;;5.00;4.50;;;;;;;;3724847;38;20334;-67
2021/06/11 13:21:35;;;;;;;;;6.00;6.00;;;;;;;;3725203;37;17661;-67
2021/06/11 13:24:02;;;;;;;;;5.50;5.50;;;;;;;;3725105;37;17665;-69
2021/06/11 13:26:29;;;;;;;;;6.00;6.00;;;;;;;;3725057;37;17630;-67
2021/06/11 13:28:56;;;;;;;;;7.25;7.25;;;;;;;;3725018;38;20369;-68
2021/06/11 13:31:22;;;;;;;;;6.00;6.00;;;;;;;;3725529;38;20274;-67
2021/06/11 13:33:48;;;;;;;;;7.00;7.00;;;;;;;;3725489;38;20267;-67
2021/06/11 13:36:16;;;;;;;;;7.00;7.00;;;;;;;;3725407;37;20274;-66
2021/06/11 13:38:43;;;;;;;;;8.50;8.50;;;;;;;;3725108;38;20276;-67
2021/06/11 13:41:10;;;;;;;;;8.25;8.25;;;;;;;;3725373;37;20287;-65
2021/06/11 13:43:37;;;;;;;;;8.00;8.00;;;;;;;;3725555;37;20255;-63
2021/06/11 13:46:07;;;;;;;;;9.00;9.00;;;;;;;;3725387;38;20264;-63
2021/06/11 13:48:33;;;;;;;;;8.25;8.25;;;;;;;;3725226;37;21251;-63
2021/06/11 13:51:00;;;;;;;;;11.00;11.00;;;;;;;;3730246;38;17624;-64
2021/06/11 13:53:32;;;;;;;;;12.75;12.75;;;;;;;;3725672;37;17616;-65
2021/06/11 13:55:58;;;;;;;;;10.75;10.25;;;;;;;;3725268;37;20378;-65
2021/06/11 13:58:30;;;;;;;;;9.75;9.75;;;;;;;;3724814;37;21303;-64
2021/06/11 14:00:56;;;;;;;;;11.25;11.25;;;;;;;;3724640;38;21270;-64
2021/06/11 14:03:23;;;;;;;;;10.75;10.00;;;;;;;;3724721;38;21328;-63
2021/06/11 14:05:51;;;;;;;;;9.75;9.75;;;;;;;;3725701;37;21296;-63
2021/06/11 14:08:17;;;;;;;;;9.00;9.00;;;;;;;;3725891;38;21402;-65
2021/06/11 14:10:44;;;;;;;;;7.75;7.75;;;;;;;;3725874;37;21229;-63
2021/06/11 14:13:14;;;;;;;;;6.00;6.00;;;;;;;;3725664;37;18592;-64
2021/06/11 14:15:41;;;;;;;;;8.75;8.00;;;;;;;;3725802;37;21248;-64
2021/06/11 14:18:08;;;;;;;;;5.00;5.00;;;;;;;;3725519;38;21215;-62
2021/06/11 14:20:35;;;;;;;;;7.25;7.00;;;;;;;;3725400;37;21226;-62
2021/06/11 14:23:01;;;;;;;;;6.75;6.00;;;;;;;;3725719;37;21201;-63
2021/06/11 14:25:27;;;;;;;;;5.25;5.25;;;;;;;;3725554;37;21208;-62
2021/06/11 14:27:54;;;;;;;;;7.00;7.00;;;;;;;;3725324;38;21313;-63
2021/06/11 14:30:23;;;;;;;;;6.00;6.00;;;;;;;;3725474;37;21201;-62
2021/06/11 14:32:50;;;;;;;;;6.00;6.00;;;;;;;;3724922;37;21214;-63
2021/06/11 14:35:17;;;;;;;;;5.00;5.00;;;;;;;;3725454;37;21203;-62
2021/06/11 14:37:43;;;;;;;;;4.75;4.75;;;;;;;;3725138;37;21211;-62
2021/06/11 14:40:10;;;;;;;;;5.50;5.50;;;;;;;;3725153;38;21262;-63
2021/06/11 14:42:36;;;;;;;;;5.75;5.75;;;;;;;;3725228;38;21316;-62